テヘラン の空港の天気 - METARとTAF

メヘラーバード国際空港(テヘラン) ( OIII / THR ) - イラン テヘラン
飛行場実況気象(Metar)
観測時間09/23 02:00 IRST (09/22 22:30 UTC)
風向・風速西北西 2m/s
視程10km以上
天気現象
全天の4割程度の雲 雲底高度 2740m
気温23℃
湿度25%
気圧1009hPa
METAROIII 222230Z 30004KT 9999 SCT090 23/02 Q1009 A2981
過去の天気等 Google飛行場航空写真 Wunderground天気予報

過去48時間のMETAR

飛行場予報(TAF)
発表時間: 9/22 21:00 IRST (9/22 17:30 UTC)
予報対象時間: 22日21時 IRST ~ 24日3時 IRST
風向・風速西 4m/s
視程8000m
全天の4割程度の雲 雲底高度 2740m
23日13時 IRST ~ 23日18時 IRST に一時的に
風向・風速南東 6m/s
TAF OIII 221730Z 2218/2324 27008KT 8000 SCT090
TEMPO 2310/2315 14012KT